sensor_id;sensor_type;location;lat;lon;timestamp;P1;durP1;ratioP1;P2;durP2;ratioP2
9809;SDS011;4944;52.514;13.192;2023-03-13T00:01:30;8.47;;;5.40;;
9809;SDS011;4944;52.514;13.192;2023-03-13T00:03:59;8.03;;;6.00;;
9809;SDS011;4944;52.514;13.192;2023-03-13T00:06:29;13.80;;;5.80;;
9809;SDS011;4944;52.514;13.192;2023-03-13T00:08:57;14.30;;;6.50;;
9809;SDS011;4944;52.514;13.192;2023-03-13T00:11:25;10.07;;;5.77;;
9809;SDS011;4944;52.514;13.192;2023-03-13T00:13:53;10.73;;;6.07;;
9809;SDS011;4944;52.514;13.192;2023-03-13T00:16:20;12.47;;;6.60;;
9809;SDS011;4944;52.514;13.192;2023-03-13T00:18:48;12.70;;;6.20;;
9809;SDS011;4944;52.514;13.192;2023-03-13T00:21:17;9.60;;;6.03;;
9809;SDS011;4944;52.514;13.192;2023-03-13T00:23:46;10.30;;;5.87;;
9809;SDS011;4944;52.514;13.192;2023-03-13T00:26:14;9.03;;;5.73;;
9809;SDS011;4944;52.514;13.192;2023-03-13T00:28:42;12.50;;;6.60;;
9809;SDS011;4944;52.514;13.192;2023-03-13T00:31:10;10.17;;;5.87;;
9809;SDS011;4944;52.514;13.192;2023-03-13T00:33:38;9.57;;;6.17;;
9809;SDS011;4944;52.514;13.192;2023-03-13T00:36:08;9.13;;;6.03;;
9809;SDS011;4944;52.514;13.192;2023-03-13T00:38:37;13.93;;;6.70;;
9809;SDS011;4944;52.514;13.192;2023-03-13T00:41:06;10.53;;;6.10;;
9809;SDS011;4944;52.514;13.192;2023-03-13T00:43:36;10.37;;;6.20;;
9809;SDS011;4944;52.514;13.192;2023-03-13T00:46:03;10.10;;;5.90;;
9809;SDS011;4944;52.514;13.192;2023-03-13T00:48:30;9.07;;;6.00;;
9809;SDS011;4944;52.514;13.192;2023-03-13T00:50:58;17.43;;;6.90;;
9809;SDS011;4944;52.514;13.192;2023-03-13T00:53:25;14.83;;;6.00;;
9809;SDS011;4944;52.514;13.192;2023-03-13T00:55:54;10.00;;;5.73;;
9809;SDS011;4944;52.514;13.192;2023-03-13T00:58:24;11.97;;;5.53;;
9809;SDS011;4944;52.514;13.192;2023-03-13T01:00:53;13.33;;;6.03;;
9809;SDS011;4944;52.514;13.192;2023-03-13T01:03:21;12.00;;;5.90;;
9809;SDS011;4944;52.514;13.192;2023-03-13T01:05:59;11.13;;;5.87;;
9809;SDS011;4944;52.514;13.192;2023-03-13T01:08:27;10.50;;;6.20;;
9809;SDS011;4944;52.514;13.192;2023-03-13T01:10:58;12.60;;;5.97;;
9809;SDS011;4944;52.514;13.192;2023-03-13T01:13:27;8.60;;;5.53;;
9809;SDS011;4944;52.514;13.192;2023-03-13T01:15:54;12.57;;;5.93;;
9809;SDS011;4944;52.514;13.192;2023-03-13T01:18:21;9.63;;;5.60;;
9809;SDS011;4944;52.514;13.192;2023-03-13T01:20:48;9.00;;;6.00;;
9809;SDS011;4944;52.514;13.192;2023-03-13T01:23:15;14.40;;;6.13;;
9809;SDS011;4944;52.514;13.192;2023-03-13T01:25:42;9.87;;;5.53;;
9809;SDS011;4944;52.514;13.192;2023-03-13T01:28:09;12.03;;;6.20;;
9809;SDS011;4944;52.514;13.192;2023-03-13T01:30:37;9.13;;;5.97;;
9809;SDS011;4944;52.514;13.192;2023-03-13T01:33:04;12.03;;;5.97;;
9809;SDS011;4944;52.514;13.192;2023-03-13T01:35:31;12.90;;;6.23;;
9809;SDS011;4944;52.514;13.192;2023-03-13T01:37:58;8.40;;;5.53;;
9809;SDS011;4944;52.514;13.192;2023-03-13T01:40:25;13.00;;;5.40;;
9809;SDS011;4944;52.514;13.192;2023-03-13T01:42:52;9.97;;;5.70;;
9809;SDS011;4944;52.514;13.192;2023-03-13T01:48:23;9.70;;;4.90;;
9809;SDS011;4944;52.514;13.192;2023-03-13T01:50:54;11.07;;;5.17;;
9809;SDS011;4944;52.514;13.192;2023-03-13T01:53:23;12.07;;;5.23;;
9809;SDS011;4944;52.514;13.192;2023-03-13T01:55:51;14.33;;;5.33;;
9809;SDS011;4944;52.514;13.192;2023-03-13T01:58:19;12.33;;;5.17;;
9809;SDS011;4944;52.514;13.192;2023-03-13T02:00:46;9.37;;;5.37;;
9809;SDS011;4944;52.514;13.192;2023-03-13T02:03:16;9.67;;;5.37;;
9809;SDS011;4944;52.514;13.192;2023-03-13T02:05:45;9.67;;;5.13;;
9809;SDS011;4944;52.514;13.192;2023-03-13T02:08:15;10.67;;;5.00;;
9809;SDS011;4944;52.514;13.192;2023-03-13T02:10:47;10.17;;;4.83;;
9809;SDS011;4944;52.514;13.192;2023-03-13T02:13:16;10.47;;;4.80;;
9809;SDS011;4944;52.514;13.192;2023-03-13T02:15:45;10.47;;;5.20;;
9809;SDS011;4944;52.514;13.192;2023-03-13T02:18:13;7.90;;;4.63;;
9809;SDS011;4944;52.514;13.192;2023-03-13T02:20:42;8.47;;;5.10;;
9809;SDS011;4944;52.514;13.192;2023-03-13T02:23:11;9.20;;;4.80;;
9809;SDS011;4944;52.514;13.192;2023-03-13T02:25:45;9.43;;;4.73;;
9809;SDS011;4944;52.514;13.192;2023-03-13T02:28:15;11.97;;;5.53;;
9809;SDS011;4944;52.514;13.192;2023-03-13T02:30:44;9.13;;;5.00;;
9809;SDS011;4944;52.514;13.192;2023-03-13T02:33:13;8.93;;;5.23;;
9809;SDS011;4944;52.514;13.192;2023-03-13T02:35:41;10.53;;;4.90;;
9809;SDS011;4944;52.514;13.192;2023-03-13T02:38:10;8.07;;;5.00;;
9809;SDS011;4944;52.514;13.192;2023-03-13T02:40:43;8.87;;;5.00;;
9809;SDS011;4944;52.514;13.192;2023-03-13T02:43:14;10.97;;;4.70;;
9809;SDS011;4944;52.514;13.192;2023-03-13T02:45:58;12.73;;;5.20;;
9809;SDS011;4944;52.514;13.192;2023-03-13T02:48:30;8.93;;;5.13;;
9809;SDS011;4944;52.514;13.192;2023-03-13T02:50:59;12.23;;;5.20;;
9809;SDS011;4944;52.514;13.192;2023-03-13T02:53:28;13.93;;;5.47;;
9809;SDS011;4944;52.514;13.192;2023-03-13T02:55:58;9.07;;;4.30;;
9809;SDS011;4944;52.514;13.192;2023-03-13T02:58:25;13.87;;;5.20;;
9809;SDS011;4944;52.514;13.192;2023-03-13T03:00:52;11.17;;;4.27;;
9809;SDS011;4944;52.514;13.192;2023-03-13T03:03:19;8.67;;;4.63;;
9809;SDS011;4944;52.514;13.192;2023-03-13T03:05:46;11.43;;;4.40;;
9809;SDS011;4944;52.514;13.192;2023-03-13T03:08:12;9.90;;;4.57;;
9809;SDS011;4944;52.514;13.192;2023-03-13T03:10:39;11.90;;;4.27;;
9809;SDS011;4944;52.514;13.192;2023-03-13T03:13:07;7.73;;;4.07;;
9809;SDS011;4944;52.514;13.192;2023-03-13T03:15:34;14.37;;;4.53;;
9809;SDS011;4944;52.514;13.192;2023-03-13T03:18:01;10.53;;;4.43;;
9809;SDS011;4944;52.514;13.192;2023-03-13T03:20:28;6.93;;;4.07;;
9809;SDS011;4944;52.514;13.192;2023-03-13T03:22:55;13.07;;;4.33;;
9809;SDS011;4944;52.514;13.192;2023-03-13T03:25:22;8.83;;;4.10;;
9809;SDS011;4944;52.514;13.192;2023-03-13T03:27:49;7.63;;;4.07;;
9809;SDS011;4944;52.514;13.192;2023-03-13T03:30:17;8.43;;;3.97;;
9809;SDS011;4944;52.514;13.192;2023-03-13T03:32:44;16.10;;;4.37;;
9809;SDS011;4944;52.514;13.192;2023-03-13T03:35:11;12.53;;;4.17;;
9809;SDS011;4944;52.514;13.192;2023-03-13T03:37:38;12.00;;;3.93;;
9809;SDS011;4944;52.514;13.192;2023-03-13T03:40:06;11.37;;;4.20;;
9809;SDS011;4944;52.514;13.192;2023-03-13T03:42:34;7.43;;;3.60;;
9809;SDS011;4944;52.514;13.192;2023-03-13T03:45:01;8.43;;;3.63;;
9809;SDS011;4944;52.514;13.192;2023-03-13T03:47:30;9.27;;;3.80;;
9809;SDS011;4944;52.514;13.192;2023-03-13T03:50:00;9.80;;;4.33;;
9809;SDS011;4944;52.514;13.192;2023-03-13T03:52:27;13.27;;;4.17;;
9809;SDS011;4944;52.514;13.192;2023-03-13T03:54:54;11.27;;;3.87;;
9809;SDS011;4944;52.514;13.192;2023-03-13T03:57:21;10.57;;;3.73;;
9809;SDS011;4944;52.514;13.192;2023-03-13T03:59:49;13.30;;;3.80;;
9809;SDS011;4944;52.514;13.192;2023-03-13T04:02:16;11.70;;;3.90;;
9809;SDS011;4944;52.514;13.192;2023-03-13T04:04:44;11.43;;;3.50;;
9809;SDS011;4944;52.514;13.192;2023-03-13T04:07:11;13.50;;;3.93;;
9809;SDS011;4944;52.514;13.192;2023-03-13T04:09:38;10.87;;;3.97;;
9809;SDS011;4944;52.514;13.192;2023-03-13T04:12:05;9.93;;;3.73;;
9809;SDS011;4944;52.514;13.192;2023-03-13T04:14:32;10.47;;;3.47;;
9809;SDS011;4944;52.514;13.192;2023-03-13T04:16:59;15.07;;;4.00;;
9809;SDS011;4944;52.514;13.192;2023-03-13T04:19:26;13.30;;;4.23;;
9809;SDS011;4944;52.514;13.192;2023-03-13T04:21:54;13.40;;;3.63;;
9809;SDS011;4944;52.514;13.192;2023-03-13T04:24:21;17.17;;;3.63;;
9809;SDS011;4944;52.514;13.192;2023-03-13T04:26:48;10.03;;;3.90;;
9809;SDS011;4944;52.514;13.192;2023-03-13T04:29:15;10.27;;;3.83;;
9809;SDS011;4944;52.514;13.192;2023-03-13T04:31:41;8.10;;;3.50;;
9809;SDS011;4944;52.514;13.192;2023-03-13T04:34:08;9.43;;;3.50;;
9809;SDS011;4944;52.514;13.192;2023-03-13T04:36:35;12.97;;;3.60;;
9809;SDS011;4944;52.514;13.192;2023-03-13T04:39:03;12.03;;;3.70;;
9809;SDS011;4944;52.514;13.192;2023-03-13T04:41:30;13.07;;;3.53;;
9809;SDS011;4944;52.514;13.192;2023-03-13T04:43:57;13.63;;;4.03;;
9809;SDS011;4944;52.514;13.192;2023-03-13T04:46:24;14.07;;;3.43;;
9809;SDS011;4944;52.514;13.192;2023-03-13T04:48:51;19.67;;;4.30;;
9809;SDS011;4944;52.514;13.192;2023-03-13T04:51:18;12.33;;;3.80;;
9809;SDS011;4944;52.514;13.192;2023-03-13T04:53:45;14.83;;;3.97;;
9809;SDS011;4944;52.514;13.192;2023-03-13T04:56:21;13.03;;;4.13;;
9809;SDS011;4944;52.514;13.192;2023-03-13T04:58:50;16.20;;;3.63;;
9809;SDS011;4944;52.514;13.192;2023-03-13T05:01:17;13.90;;;3.60;;
9809;SDS011;4944;52.514;13.192;2023-03-13T05:03:44;15.40;;;4.70;;
9809;SDS011;4944;52.514;13.192;2023-03-13T05:06:11;18.30;;;4.37;;
9809;SDS011;4944;52.514;13.192;2023-03-13T05:08:38;13.67;;;3.87;;
9809;SDS011;4944;52.514;13.192;2023-03-13T05:11:05;10.17;;;4.00;;
9809;SDS011;4944;52.514;13.192;2023-03-13T05:13:33;18.90;;;4.27;;
9809;SDS011;4944;52.514;13.192;2023-03-13T05:16:00;14.33;;;4.27;;
9809;SDS011;4944;52.514;13.192;2023-03-13T05:18:27;14.47;;;3.90;;
9809;SDS011;4944;52.514;13.192;2023-03-13T05:20:55;9.97;;;3.53;;
9809;SDS011;4944;52.514;13.192;2023-03-13T05:23:22;12.27;;;4.43;;
9809;SDS011;4944;52.514;13.192;2023-03-13T05:25:48;11.97;;;3.63;;
9809;SDS011;4944;52.514;13.192;2023-03-13T05:28:15;14.30;;;4.60;;
9809;SDS011;4944;52.514;13.192;2023-03-13T05:30:44;16.20;;;4.30;;
9809;SDS011;4944;52.514;13.192;2023-03-13T05:33:11;11.70;;;3.80;;
9809;SDS011;4944;52.514;13.192;2023-03-13T05:35:37;12.40;;;3.77;;
9809;SDS011;4944;52.514;13.192;2023-03-13T05:38:04;14.27;;;4.10;;
9809;SDS011;4944;52.514;13.192;2023-03-13T05:40:31;17.27;;;4.10;;
9809;SDS011;4944;52.514;13.192;2023-03-13T05:42:58;17.60;;;4.77;;
9809;SDS011;4944;52.514;13.192;2023-03-13T05:45:25;15.57;;;4.20;;
9809;SDS011;4944;52.514;13.192;2023-03-13T05:47:53;15.87;;;3.77;;
9809;SDS011;4944;52.514;13.192;2023-03-13T05:50:20;19.17;;;4.60;;
9809;SDS011;4944;52.514;13.192;2023-03-13T05:52:47;14.33;;;3.80;;
9809;SDS011;4944;52.514;13.192;2023-03-13T05:55:14;13.80;;;4.20;;
9809;SDS011;4944;52.514;13.192;2023-03-13T05:57:42;14.23;;;4.20;;
9809;SDS011;4944;52.514;13.192;2023-03-13T06:00:11;19.90;;;4.10;;
9809;SDS011;4944;52.514;13.192;2023-03-13T06:02:39;14.37;;;3.87;;
9809;SDS011;4944;52.514;13.192;2023-03-13T06:05:08;14.73;;;3.67;;
9809;SDS011;4944;52.514;13.192;2023-03-13T06:07:36;13.87;;;4.30;;
9809;SDS011;4944;52.514;13.192;2023-03-13T06:10:03;15.47;;;3.93;;
9809;SDS011;4944;52.514;13.192;2023-03-13T06:12:30;19.10;;;4.60;;
9809;SDS011;4944;52.514;13.192;2023-03-13T06:14:57;17.90;;;3.87;;
9809;SDS011;4944;52.514;13.192;2023-03-13T06:17:24;16.27;;;4.30;;
9809;SDS011;4944;52.514;13.192;2023-03-13T06:19:51;17.17;;;4.13;;
9809;SDS011;4944;52.514;13.192;2023-03-13T06:22:19;16.63;;;3.87;;
9809;SDS011;4944;52.514;13.192;2023-03-13T06:24:46;20.90;;;4.70;;
9809;SDS011;4944;52.514;13.192;2023-03-13T06:27:13;17.70;;;4.00;;
9809;SDS011;4944;52.514;13.192;2023-03-13T06:29:40;17.20;;;4.50;;
9809;SDS011;4944;52.514;13.192;2023-03-13T06:32:07;14.90;;;4.57;;
9809;SDS011;4944;52.514;13.192;2023-03-13T06:34:34;13.80;;;4.00;;
9809;SDS011;4944;52.514;13.192;2023-03-13T06:37:01;15.73;;;4.27;;
9809;SDS011;4944;52.514;13.192;2023-03-13T06:39:30;16.53;;;4.63;;
9809;SDS011;4944;52.514;13.192;2023-03-13T06:41:57;17.67;;;4.27;;
9809;SDS011;4944;52.514;13.192;2023-03-13T06:44:24;16.67;;;3.87;;
9809;SDS011;4944;52.514;13.192;2023-03-13T06:46:51;12.70;;;4.43;;
9809;SDS011;4944;52.514;13.192;2023-03-13T06:49:18;14.00;;;4.27;;
9809;SDS011;4944;52.514;13.192;2023-03-13T06:51:45;18.77;;;4.30;;
9809;SDS011;4944;52.514;13.192;2023-03-13T06:54:11;10.80;;;3.97;;
9809;SDS011;4944;52.514;13.192;2023-03-13T06:56:40;17.53;;;4.40;;
9809;SDS011;4944;52.514;13.192;2023-03-13T06:59:07;14.03;;;3.53;;
9809;SDS011;4944;52.514;13.192;2023-03-13T07:01:34;14.90;;;4.00;;
9809;SDS011;4944;52.514;13.192;2023-03-13T07:04:00;15.50;;;4.20;;
9809;SDS011;4944;52.514;13.192;2023-03-13T07:06:27;16.07;;;4.63;;
9809;SDS011;4944;52.514;13.192;2023-03-13T07:08:54;15.17;;;4.10;;
9809;SDS011;4944;52.514;13.192;2023-03-13T07:11:21;15.20;;;4.10;;
9809;SDS011;4944;52.514;13.192;2023-03-13T07:13:51;15.27;;;4.30;;
9809;SDS011;4944;52.514;13.192;2023-03-13T07:16:20;16.73;;;4.20;;
9809;SDS011;4944;52.514;13.192;2023-03-13T07:18:47;18.90;;;4.47;;
9809;SDS011;4944;52.514;13.192;2023-03-13T07:21:14;14.80;;;3.90;;
9809;SDS011;4944;52.514;13.192;2023-03-13T07:23:41;15.57;;;4.37;;
9809;SDS011;4944;52.514;13.192;2023-03-13T07:26:09;15.70;;;3.93;;
9809;SDS011;4944;52.514;13.192;2023-03-13T07:28:37;18.47;;;4.07;;
9809;SDS011;4944;52.514;13.192;2023-03-13T07:31:06;11.70;;;3.90;;
9809;SDS011;4944;52.514;13.192;2023-03-13T07:33:35;16.33;;;4.00;;
9809;SDS011;4944;52.514;13.192;2023-03-13T07:36:02;12.23;;;3.93;;
9809;SDS011;4944;52.514;13.192;2023-03-13T07:38:30;17.33;;;3.60;;
9809;SDS011;4944;52.514;13.192;2023-03-13T07:40:57;15.17;;;4.23;;
9809;SDS011;4944;52.514;13.192;2023-03-13T07:43:24;17.13;;;4.50;;
9809;SDS011;4944;52.514;13.192;2023-03-13T07:45:52;12.00;;;3.47;;
9809;SDS011;4944;52.514;13.192;2023-03-13T07:48:22;19.00;;;4.97;;
9809;SDS011;4944;52.514;13.192;2023-03-13T07:50:50;20.90;;;4.73;;
9809;SDS011;4944;52.514;13.192;2023-03-13T07:53:19;13.27;;;3.87;;
9809;SDS011;4944;52.514;13.192;2023-03-13T07:55:55;13.23;;;4.00;;
9809;SDS011;4944;52.514;13.192;2023-03-13T07:58:23;8.90;;;3.53;;
9809;SDS011;4944;52.514;13.192;2023-03-13T08:00:51;16.93;;;4.40;;
9809;SDS011;4944;52.514;13.192;2023-03-13T08:03:19;17.40;;;4.23;;
9809;SDS011;4944;52.514;13.192;2023-03-13T08:05:55;12.30;;;3.80;;
9809;SDS011;4944;52.514;13.192;2023-03-13T08:08:23;16.63;;;4.33;;
9809;SDS011;4944;52.514;13.192;2023-03-13T08:10:50;13.50;;;3.90;;
9809;SDS011;4944;52.514;13.192;2023-03-13T08:13:17;15.23;;;4.13;;
9809;SDS011;4944;52.514;13.192;2023-03-13T08:15:44;15.27;;;3.87;;
9809;SDS011;4944;52.514;13.192;2023-03-13T08:18:11;16.00;;;4.30;;
9809;SDS011;4944;52.514;13.192;2023-03-13T08:20:39;16.57;;;4.13;;
9809;SDS011;4944;52.514;13.192;2023-03-13T08:23:06;16.30;;;4.53;;
9809;SDS011;4944;52.514;13.192;2023-03-13T08:25:33;17.93;;;4.13;;
9809;SDS011;4944;52.514;13.192;2023-03-13T08:27:59;16.13;;;4.70;;
9809;SDS011;4944;52.514;13.192;2023-03-13T08:30:26;12.10;;;3.70;;
9809;SDS011;4944;52.514;13.192;2023-03-13T08:32:53;10.47;;;3.40;;
9809;SDS011;4944;52.514;13.192;2023-03-13T08:35:20;13.93;;;3.70;;
9809;SDS011;4944;52.514;13.192;2023-03-13T08:37:48;9.70;;;3.10;;
9809;SDS011;4944;52.514;13.192;2023-03-13T08:40:15;17.47;;;4.03;;
9809;SDS011;4944;52.514;13.192;2023-03-13T08:42:42;12.27;;;3.93;;
9809;SDS011;4944;52.514;13.192;2023-03-13T08:45:09;14.80;;;3.90;;
9809;SDS011;4944;52.514;13.192;2023-03-13T08:47:36;13.67;;;3.80;;
9809;SDS011;4944;52.514;13.192;2023-03-13T08:50:03;13.40;;;3.73;;
9809;SDS011;4944;52.514;13.192;2023-03-13T08:52:31;14.97;;;3.53;;
9809;SDS011;4944;52.514;13.192;2023-03-13T08:54:59;12.97;;;4.00;;
9809;SDS011;4944;52.514;13.192;2023-03-13T08:57:26;9.87;;;3.30;;
9809;SDS011;4944;52.514;13.192;2023-03-13T08:59:53;13.83;;;3.23;;
9809;SDS011;4944;52.514;13.192;2023-03-13T09:02:20;12.83;;;3.90;;
9809;SDS011;4944;52.514;13.192;2023-03-13T09:04:47;10.47;;;4.00;;
9809;SDS011;4944;52.514;13.192;2023-03-13T09:07:14;15.33;;;4.03;;
9809;SDS011;4944;52.514;13.192;2023-03-13T09:09:42;7.80;;;3.67;;
9809;SDS011;4944;52.514;13.192;2023-03-13T09:12:10;11.57;;;3.47;;
9809;SDS011;4944;52.514;13.192;2023-03-13T09:14:37;7.40;;;3.30;;
9809;SDS011;4944;52.514;13.192;2023-03-13T09:17:05;10.23;;;3.20;;
9809;SDS011;4944;52.514;13.192;2023-03-13T09:19:32;16.73;;;4.30;;
9809;SDS011;4944;52.514;13.192;2023-03-13T09:21:59;11.53;;;4.10;;
9809;SDS011;4944;52.514;13.192;2023-03-13T09:24:26;6.83;;;3.33;;
9809;SDS011;4944;52.514;13.192;2023-03-13T09:26:53;7.67;;;3.17;;
9809;SDS011;4944;52.514;13.192;2023-03-13T09:29:21;10.00;;;3.30;;
9809;SDS011;4944;52.514;13.192;2023-03-13T09:31:48;13.43;;;3.40;;
9809;SDS011;4944;52.514;13.192;2023-03-13T09:34:15;8.77;;;2.97;;
9809;SDS011;4944;52.514;13.192;2023-03-13T09:36:42;6.87;;;2.70;;
9809;SDS011;4944;52.514;13.192;2023-03-13T09:39:09;7.03;;;2.73;;
9809;SDS011;4944;52.514;13.192;2023-03-13T09:41:38;10.27;;;2.93;;
9809;SDS011;4944;52.514;13.192;2023-03-13T09:44:12;6.57;;;3.03;;
9809;SDS011;4944;52.514;13.192;2023-03-13T09:46:47;8.83;;;2.73;;
9809;SDS011;4944;52.514;13.192;2023-03-13T09:49:26;8.97;;;2.67;;
9809;SDS011;4944;52.514;13.192;2023-03-13T09:51:57;9.13;;;2.80;;
9809;SDS011;4944;52.514;13.192;2023-03-13T09:54:32;7.77;;;2.73;;
9809;SDS011;4944;52.514;13.192;2023-03-13T09:57:04;7.10;;;2.57;;
9809;SDS011;4944;52.514;13.192;2023-03-13T09:59:41;7.10;;;2.60;;
9809;SDS011;4944;52.514;13.192;2023-03-13T10:02:18;8.53;;;2.53;;
9809;SDS011;4944;52.514;13.192;2023-03-13T10:04:52;6.67;;;2.50;;
9809;SDS011;4944;52.514;13.192;2023-03-13T10:07:25;6.07;;;2.37;;
9809;SDS011;4944;52.514;13.192;2023-03-13T10:09:52;5.27;;;2.20;;
9809;SDS011;4944;52.514;13.192;2023-03-13T10:12:20;6.97;;;2.73;;
9809;SDS011;4944;52.514;13.192;2023-03-13T10:14:52;7.40;;;2.67;;
9809;SDS011;4944;52.514;13.192;2023-03-13T10:17:33;5.40;;;2.77;;
9809;SDS011;4944;52.514;13.192;2023-03-13T10:20:02;5.13;;;2.60;;
9809;SDS011;4944;52.514;13.192;2023-03-13T10:22:41;6.93;;;2.40;;
9809;SDS011;4944;52.514;13.192;2023-03-13T10:25:17;4.93;;;2.40;;
9809;SDS011;4944;52.514;13.192;2023-03-13T10:27:52;8.10;;;2.40;;
9809;SDS011;4944;52.514;13.192;2023-03-13T10:30:21;7.67;;;2.40;;
9809;SDS011;4944;52.514;13.192;2023-03-13T10:32:53;6.40;;;2.30;;
9809;SDS011;4944;52.514;13.192;2023-03-13T10:35:24;5.93;;;2.30;;
9809;SDS011;4944;52.514;13.192;2023-03-13T10:37:59;4.80;;;2.40;;
9809;SDS011;4944;52.514;13.192;2023-03-13T10:40:28;6.90;;;2.30;;
9809;SDS011;4944;52.514;13.192;2023-03-13T10:42:59;4.63;;;2.50;;
9809;SDS011;4944;52.514;13.192;2023-03-13T10:45:30;7.33;;;2.20;;
9809;SDS011;4944;52.514;13.192;2023-03-13T10:48:01;4.73;;;2.30;;
9809;SDS011;4944;52.514;13.192;2023-03-13T10:50:32;4.20;;;2.57;;
9809;SDS011;4944;52.514;13.192;2023-03-13T10:53:06;6.50;;;2.07;;
9809;SDS011;4944;52.514;13.192;2023-03-13T10:55:45;3.50;;;2.20;;
9809;SDS011;4944;52.514;13.192;2023-03-13T10:58:15;7.63;;;2.30;;
9809;SDS011;4944;52.514;13.192;2023-03-13T11:00:46;3.37;;;2.23;;
9809;SDS011;4944;52.514;13.192;2023-03-13T11:03:16;2.93;;;1.80;;
9809;SDS011;4944;52.514;13.192;2023-03-13T11:05:53;6.10;;;2.50;;
9809;SDS011;4944;52.514;13.192;2023-03-13T11:08:22;3.67;;;1.70;;
9809;SDS011;4944;52.514;13.192;2023-03-13T11:10:52;5.97;;;2.10;;
9809;SDS011;4944;52.514;13.192;2023-03-13T11:13:29;2.77;;;1.50;;
9809;SDS011;4944;52.514;13.192;2023-03-13T11:16:00;1.90;;;1.70;;
9809;SDS011;4944;52.514;13.192;2023-03-13T11:18:38;1.77;;;1.53;;
9809;SDS011;4944;52.514;13.192;2023-03-13T11:21:10;2.60;;;1.70;;
9809;SDS011;4944;52.514;13.192;2023-03-13T11:23:46;2.57;;;1.57;;
9809;SDS011;4944;52.514;13.192;2023-03-13T11:26:21;2.40;;;1.87;;
9809;SDS011;4944;52.514;13.192;2023-03-13T11:28:57;3.57;;;1.60;;
9809;SDS011;4944;52.514;13.192;2023-03-13T11:31:31;2.40;;;1.30;;
9809;SDS011;4944;52.514;13.192;2023-03-13T11:34:03;2.47;;;1.20;;
9809;SDS011;4944;52.514;13.192;2023-03-13T11:36:37;3.73;;;1.40;;
9809;SDS011;4944;52.514;13.192;2023-03-13T11:39:16;4.30;;;1.47;;
9809;SDS011;4944;52.514;13.192;2023-03-13T11:42:02;1.70;;;1.20;;
9809;SDS011;4944;52.514;13.192;2023-03-13T11:44:42;2.37;;;1.30;;
9809;SDS011;4944;52.514;13.192;2023-03-13T11:47:31;1.90;;;1.80;;
9809;SDS011;4944;52.514;13.192;2023-03-13T11:50:22;2.10;;;1.90;;
9809;SDS011;4944;52.514;13.192;2023-03-13T11:53:01;1.10;;;0.97;;
9809;SDS011;4944;52.514;13.192;2023-03-13T11:55:43;1.83;;;0.93;;
9809;SDS011;4944;52.514;13.192;2023-03-13T11:58:23;1.10;;;1.00;;
9809;SDS011;4944;52.514;13.192;2023-03-13T12:00:58;1.63;;;1.07;;
9809;SDS011;4944;52.514;13.192;2023-03-13T12:03:30;2.07;;;1.10;;
9809;SDS011;4944;52.514;13.192;2023-03-13T12:06:04;1.20;;;0.97;;
9809;SDS011;4944;52.514;13.192;2023-03-13T12:08:38;1.80;;;1.47;;
9809;SDS011;4944;52.514;13.192;2023-03-13T12:11:11;1.83;;;1.10;;
9809;SDS011;4944;52.514;13.192;2023-03-13T12:13:41;1.63;;;0.73;;
9809;SDS011;4944;52.514;13.192;2023-03-13T12:16:12;1.10;;;1.00;;
9809;SDS011;4944;52.514;13.192;2023-03-13T12:18:42;1.13;;;0.90;;
9809;SDS011;4944;52.514;13.192;2023-03-13T12:21:14;1.90;;;0.80;;
9809;SDS011;4944;52.514;13.192;2023-03-13T12:23:46;1.00;;;0.90;;
9809;SDS011;4944;52.514;13.192;2023-03-13T12:26:15;1.60;;;0.90;;
9809;SDS011;4944;52.514;13.192;2023-03-13T12:28:46;2.17;;;0.93;;
9809;SDS011;4944;52.514;13.192;2023-03-13T12:31:18;1.03;;;0.97;;
9809;SDS011;4944;52.514;13.192;2023-03-13T12:33:52;0.80;;;0.80;;
9809;SDS011;4944;52.514;13.192;2023-03-13T12:36:25;2.03;;;0.80;;
9809;SDS011;4944;52.514;13.192;2023-03-13T12:39:01;1.07;;;1.07;;
9809;SDS011;4944;52.514;13.192;2023-03-13T12:41:41;2.60;;;0.77;;
9809;SDS011;4944;52.514;13.192;2023-03-13T12:44:10;1.03;;;1.00;;
9809;SDS011;4944;52.514;13.192;2023-03-13T12:46:44;1.17;;;1.10;;
9809;SDS011;4944;52.514;13.192;2023-03-13T12:52:28;1.93;;;0.70;;
9809;SDS011;4944;52.514;13.192;2023-03-13T12:55:30;3.40;;;2.57;;
9809;SDS011;4944;52.514;13.192;2023-03-13T12:58:25;1.07;;;1.07;;
9809;SDS011;4944;52.514;13.192;2023-03-13T13:01:13;0.60;;;0.60;;
9809;SDS011;4944;52.514;13.192;2023-03-13T13:03:49;1.17;;;0.90;;
9809;SDS011;4944;52.514;13.192;2023-03-13T13:06:18;0.83;;;0.83;;
9809;SDS011;4944;52.514;13.192;2023-03-13T13:08:48;0.80;;;0.80;;
9809;SDS011;4944;52.514;13.192;2023-03-13T13:11:42;0.87;;;0.87;;
9809;SDS011;4944;52.514;13.192;2023-03-13T13:17:34;2.00;;;1.70;;
9809;SDS011;4944;52.514;13.192;2023-03-13T13:20:25;1.70;;;1.10;;
9809;SDS011;4944;52.514;13.192;2023-03-13T13:23:24;1.50;;;1.40;;
9809;SDS011;4944;52.514;13.192;2023-03-13T13:26:36;1.20;;;1.10;;
9809;SDS011;4944;52.514;13.192;2023-03-13T13:32:39;1.50;;;1.40;;
9809;SDS011;4944;52.514;13.192;2023-03-13T13:35:24;1.00;;;1.00;;
9809;SDS011;4944;52.514;13.192;2023-03-13T13:37:56;0.77;;;0.77;;
9809;SDS011;4944;52.514;13.192;2023-03-13T13:41:03;1.03;;;0.80;;
9809;SDS011;4944;52.514;13.192;2023-03-13T13:43:47;1.50;;;0.70;;
9809;SDS011;4944;52.514;13.192;2023-03-13T13:46:18;0.97;;;0.90;;
9809;SDS011;4944;52.514;13.192;2023-03-13T13:49:05;2.77;;;0.90;;
9809;SDS011;4944;52.514;13.192;2023-03-13T13:51:39;1.30;;;1.10;;
9809;SDS011;4944;52.514;13.192;2023-03-13T13:54:29;1.00;;;1.00;;
9809;SDS011;4944;52.514;13.192;2023-03-13T13:56:58;1.77;;;1.63;;
9809;SDS011;4944;52.514;13.192;2023-03-13T13:59:29;3.00;;;1.17;;
9809;SDS011;4944;52.514;13.192;2023-03-13T14:02:11;1.40;;;1.30;;
9809;SDS011;4944;52.514;13.192;2023-03-13T14:04:50;3.40;;;1.67;;
9809;SDS011;4944;52.514;13.192;2023-03-13T14:07:27;5.47;;;3.27;;
9809;SDS011;4944;52.514;13.192;2023-03-13T14:09:59;1.53;;;1.20;;
9809;SDS011;4944;52.514;13.192;2023-03-13T14:12:31;1.80;;;1.70;;
9809;SDS011;4944;52.514;13.192;2023-03-13T14:17:48;1.27;;;1.17;;
9809;SDS011;4944;52.514;13.192;2023-03-13T14:20:24;1.47;;;0.90;;
9809;SDS011;4944;52.514;13.192;2023-03-13T14:22:56;1.90;;;1.00;;
9809;SDS011;4944;52.514;13.192;2023-03-13T14:25:25;2.97;;;1.10;;
9809;SDS011;4944;52.514;13.192;2023-03-13T14:27:55;2.10;;;1.23;;
9809;SDS011;4944;52.514;13.192;2023-03-13T14:30:22;2.40;;;1.20;;
9809;SDS011;4944;52.514;13.192;2023-03-13T14:32:51;1.07;;;1.00;;
9809;SDS011;4944;52.514;13.192;2023-03-13T14:35:19;1.70;;;1.60;;
9809;SDS011;4944;52.514;13.192;2023-03-13T14:37:48;1.60;;;1.50;;
9809;SDS011;4944;52.514;13.192;2023-03-13T14:40:20;6.90;;;2.27;;
9809;SDS011;4944;52.514;13.192;2023-03-13T14:42:51;4.27;;;3.33;;
9809;SDS011;4944;52.514;13.192;2023-03-13T14:45:22;1.97;;;1.80;;
9809;SDS011;4944;52.514;13.192;2023-03-13T14:47:52;2.03;;;1.87;;
9809;SDS011;4944;52.514;13.192;2023-03-13T14:50:21;1.60;;;1.50;;
9809;SDS011;4944;52.514;13.192;2023-03-13T14:52:51;1.83;;;1.73;;
9809;SDS011;4944;52.514;13.192;2023-03-13T14:55:27;3.30;;;1.50;;
9809;SDS011;4944;52.514;13.192;2023-03-13T14:57:58;1.03;;;1.03;;
9809;SDS011;4944;52.514;13.192;2023-03-13T15:00:40;1.10;;;1.10;;
9809;SDS011;4944;52.514;13.192;2023-03-13T15:03:11;2.13;;;2.00;;
9809;SDS011;4944;52.514;13.192;2023-03-13T15:06:00;1.53;;;1.43;;
9809;SDS011;4944;52.514;13.192;2023-03-13T15:08:32;2.10;;;1.70;;
9809;SDS011;4944;52.514;13.192;2023-03-13T15:11:01;2.47;;;1.60;;
9809;SDS011;4944;52.514;13.192;2023-03-13T15:13:41;1.70;;;1.60;;
9809;SDS011;4944;52.514;13.192;2023-03-13T15:16:12;2.20;;;1.53;;
9809;SDS011;4944;52.514;13.192;2023-03-13T15:18:40;2.30;;;1.53;;
9809;SDS011;4944;52.514;13.192;2023-03-13T15:21:18;1.40;;;1.30;;
9809;SDS011;4944;52.514;13.192;2023-03-13T15:23:48;1.20;;;1.10;;
9809;SDS011;4944;52.514;13.192;2023-03-13T15:26:16;1.00;;;0.97;;
9809;SDS011;4944;52.514;13.192;2023-03-13T15:28:43;1.00;;;1.00;;
9809;SDS011;4944;52.514;13.192;2023-03-13T15:31:12;0.90;;;0.90;;